sensor_id;sensor_type;location;lat;lon;timestamp;temperature;humidity
50067;DHT22;35952;52.524;13.340;2022-09-17T00:01:55;12.40;99.90
50067;DHT22;35952;52.524;13.340;2022-09-17T00:04:20;12.40;99.90
50067;DHT22;35952;52.524;13.340;2022-09-17T00:06:46;12.40;99.90
50067;DHT22;35952;52.524;13.340;2022-09-17T00:09:11;12.40;99.90
50067;DHT22;35952;52.524;13.340;2022-09-17T00:11:40;12.40;99.90
50067;DHT22;35952;52.524;13.340;2022-09-17T00:14:07;12.40;99.90
50067;DHT22;35952;52.524;13.340;2022-09-17T00:16:41;12.40;99.90
50067;DHT22;35952;52.524;13.340;2022-09-17T00:19:12;12.40;99.90
50067;DHT22;35952;52.524;13.340;2022-09-17T00:21:39;12.50;99.90
50067;DHT22;35952;52.524;13.340;2022-09-17T00:24:06;12.50;99.90
50067;DHT22;35952;52.524;13.340;2022-09-17T00:26:33;12.50;99.90
50067;DHT22;35952;52.524;13.340;2022-09-17T00:28:59;12.50;99.90
50067;DHT22;35952;52.524;13.340;2022-09-17T00:31:26;12.40;99.90
50067;DHT22;35952;52.524;13.340;2022-09-17T00:33:52;12.50;99.90
50067;DHT22;35952;52.524;13.340;2022-09-17T00:36:18;12.50;99.90
50067;DHT22;35952;52.524;13.340;2022-09-17T00:38:48;12.50;99.90
50067;DHT22;35952;52.524;13.340;2022-09-17T00:41:13;12.50;99.90
50067;DHT22;35952;52.524;13.340;2022-09-17T00:43:42;12.60;99.90
50067;DHT22;35952;52.524;13.340;2022-09-17T00:46:24;12.60;99.90
50067;DHT22;35952;52.524;13.340;2022-09-17T00:48:54;12.60;99.90
50067;DHT22;35952;52.524;13.340;2022-09-17T00:51:33;12.60;99.90
50067;DHT22;35952;52.524;13.340;2022-09-17T00:54:03;12.60;99.90
50067;DHT22;35952;52.524;13.340;2022-09-17T00:56:32;12.60;99.90
50067;DHT22;35952;52.524;13.340;2022-09-17T00:59:00;12.60;99.90
50067;DHT22;35952;52.524;13.340;2022-09-17T01:01:26;12.70;99.90
50067;DHT22;35952;52.524;13.340;2022-09-17T01:03:52;12.60;99.90
50067;DHT22;35952;52.524;13.340;2022-09-17T01:06:32;12.70;99.90
50067;DHT22;35952;52.524;13.340;2022-09-17T01:09:18;12.60;99.90
50067;DHT22;35952;52.524;13.340;2022-09-17T01:14:58;12.70;99.90
50067;DHT22;35952;52.524;13.340;2022-09-17T01:29:08;12.70;99.90
50067;DHT22;35952;52.524;13.340;2022-09-17T01:31:51;12.70;99.90
50067;DHT22;35952;52.524;13.340;2022-09-17T01:37:32;12.70;99.90
50067;DHT22;35952;52.524;13.340;2022-09-17T01:40:07;12.70;99.90
50067;DHT22;35952;52.524;13.340;2022-09-17T01:42:50;12.70;99.90
50067;DHT22;35952;52.524;13.340;2022-09-17T01:45:33;12.70;99.90
50067;DHT22;35952;52.524;13.340;2022-09-17T01:48:22;12.60;99.90
50067;DHT22;35952;52.524;13.340;2022-09-17T01:51:11;12.60;99.90
50067;DHT22;35952;52.524;13.340;2022-09-17T01:53:44;12.60;99.90
50067;DHT22;35952;52.524;13.340;2022-09-17T01:56:15;12.70;99.90
50067;DHT22;35952;52.524;13.340;2022-09-17T01:58:48;12.80;99.90
50067;DHT22;35952;52.524;13.340;2022-09-17T02:01:16;12.90;99.90
50067;DHT22;35952;52.524;13.340;2022-09-17T02:04:04;12.90;99.90
50067;DHT22;35952;52.524;13.340;2022-09-17T02:06:36;12.90;99.90
50067;DHT22;35952;52.524;13.340;2022-09-17T02:09:17;12.80;99.90
50067;DHT22;35952;52.524;13.340;2022-09-17T02:11:51;12.70;99.90
50067;DHT22;35952;52.524;13.340;2022-09-17T02:14:27;12.70;99.90
50067;DHT22;35952;52.524;13.340;2022-09-17T02:17:25;12.70;99.90
50067;DHT22;35952;52.524;13.340;2022-09-17T02:19:48;12.70;99.90
50067;DHT22;35952;52.524;13.340;2022-09-17T02:22:23;12.70;99.90
50067;DHT22;35952;52.524;13.340;2022-09-17T02:30:16;12.80;99.90
50067;DHT22;35952;52.524;13.340;2022-09-17T02:32:42;12.80;99.90
50067;DHT22;35952;52.524;13.340;2022-09-17T02:35:10;12.80;99.90
50067;DHT22;35952;52.524;13.340;2022-09-17T02:37:38;12.80;99.90
50067;DHT22;35952;52.524;13.340;2022-09-17T02:40:04;12.80;99.90
50067;DHT22;35952;52.524;13.340;2022-09-17T02:45:15;12.70;99.90
50067;DHT22;35952;52.524;13.340;2022-09-17T02:48:11;12.80;99.90
50067;DHT22;35952;52.524;13.340;2022-09-17T02:51:02;12.80;99.90
50067;DHT22;35952;52.524;13.340;2022-09-17T02:53:47;12.80;99.90
50067;DHT22;35952;52.524;13.340;2022-09-17T03:01:39;12.80;99.90
50067;DHT22;35952;52.524;13.340;2022-09-17T03:04:09;12.80;99.90
50067;DHT22;35952;52.524;13.340;2022-09-17T03:06:37;12.80;99.90
50067;DHT22;35952;52.524;13.340;2022-09-17T03:09:03;12.80;99.90
50067;DHT22;35952;52.524;13.340;2022-09-17T03:11:28;12.80;99.90
50067;DHT22;35952;52.524;13.340;2022-09-17T03:13:54;12.90;99.90
50067;DHT22;35952;52.524;13.340;2022-09-17T03:16:19;12.90;99.90
50067;DHT22;35952;52.524;13.340;2022-09-17T03:18:45;12.80;99.90
50067;DHT22;35952;52.524;13.340;2022-09-17T03:21:10;12.90;99.90
50067;DHT22;35952;52.524;13.340;2022-09-17T03:23:36;12.90;99.90
50067;DHT22;35952;52.524;13.340;2022-09-17T03:26:03;12.90;99.90
50067;DHT22;35952;52.524;13.340;2022-09-17T03:28:29;13.00;99.90
50067;DHT22;35952;52.524;13.340;2022-09-17T03:30:54;13.00;99.90
50067;DHT22;35952;52.524;13.340;2022-09-17T03:33:20;13.00;99.90
50067;DHT22;35952;52.524;13.340;2022-09-17T03:35:45;13.00;99.90
50067;DHT22;35952;52.524;13.340;2022-09-17T03:38:12;13.00;99.90
50067;DHT22;35952;52.524;13.340;2022-09-17T03:40:38;13.00;99.90
50067;DHT22;35952;52.524;13.340;2022-09-17T03:43:04;13.00;99.90
50067;DHT22;35952;52.524;13.340;2022-09-17T03:45:30;13.00;99.90
50067;DHT22;35952;52.524;13.340;2022-09-17T03:47:56;13.00;99.90
50067;DHT22;35952;52.524;13.340;2022-09-17T03:50:21;13.00;99.90
50067;DHT22;35952;52.524;13.340;2022-09-17T03:52:47;13.10;99.90
50067;DHT22;35952;52.524;13.340;2022-09-17T03:55:14;13.10;99.90
50067;DHT22;35952;52.524;13.340;2022-09-17T03:57:40;13.10;99.90
50067;DHT22;35952;52.524;13.340;2022-09-17T04:00:06;13.10;99.90
50067;DHT22;35952;52.524;13.340;2022-09-17T04:02:32;13.00;99.90
50067;DHT22;35952;52.524;13.340;2022-09-17T04:04:58;13.10;99.90
50067;DHT22;35952;52.524;13.340;2022-09-17T04:07:24;13.00;99.90
50067;DHT22;35952;52.524;13.340;2022-09-17T04:09:49;13.10;99.90
50067;DHT22;35952;52.524;13.340;2022-09-17T04:12:14;13.10;99.90
50067;DHT22;35952;52.524;13.340;2022-09-17T04:14:40;13.10;99.90
50067;DHT22;35952;52.524;13.340;2022-09-17T04:17:06;13.10;99.90
50067;DHT22;35952;52.524;13.340;2022-09-17T04:19:31;13.10;99.90
50067;DHT22;35952;52.524;13.340;2022-09-17T04:21:57;13.10;99.90
50067;DHT22;35952;52.524;13.340;2022-09-17T04:24:22;13.10;99.90
50067;DHT22;35952;52.524;13.340;2022-09-17T04:26:48;13.10;99.90
50067;DHT22;35952;52.524;13.340;2022-09-17T04:29:13;13.10;99.90
50067;DHT22;35952;52.524;13.340;2022-09-17T04:31:39;13.20;99.90
50067;DHT22;35952;52.524;13.340;2022-09-17T04:34:04;13.10;99.90
50067;DHT22;35952;52.524;13.340;2022-09-17T04:36:30;13.10;99.90
50067;DHT22;35952;52.524;13.340;2022-09-17T04:38:55;13.00;99.90
50067;DHT22;35952;52.524;13.340;2022-09-17T04:41:21;13.00;99.90
50067;DHT22;35952;52.524;13.340;2022-09-17T04:43:46;13.10;99.90
50067;DHT22;35952;52.524;13.340;2022-09-17T04:46:12;13.20;99.90
50067;DHT22;35952;52.524;13.340;2022-09-17T04:48:38;13.20;99.90
50067;DHT22;35952;52.524;13.340;2022-09-17T04:51:04;13.20;99.90
50067;DHT22;35952;52.524;13.340;2022-09-17T04:53:30;13.10;99.90
50067;DHT22;35952;52.524;13.340;2022-09-17T04:55:55;13.10;99.90
50067;DHT22;35952;52.524;13.340;2022-09-17T04:58:21;13.10;99.90
50067;DHT22;35952;52.524;13.340;2022-09-17T05:00:47;13.20;99.90
50067;DHT22;35952;52.524;13.340;2022-09-17T05:03:13;13.20;99.90
50067;DHT22;35952;52.524;13.340;2022-09-17T05:05:38;13.10;99.90
50067;DHT22;35952;52.524;13.340;2022-09-17T05:08:04;13.20;99.90
50067;DHT22;35952;52.524;13.340;2022-09-17T05:10:30;13.20;99.90
50067;DHT22;35952;52.524;13.340;2022-09-17T05:12:55;13.20;99.90
50067;DHT22;35952;52.524;13.340;2022-09-17T05:15:23;13.10;99.90
50067;DHT22;35952;52.524;13.340;2022-09-17T05:17:48;13.10;99.90
50067;DHT22;35952;52.524;13.340;2022-09-17T05:20:15;13.10;99.90
50067;DHT22;35952;52.524;13.340;2022-09-17T05:22:45;13.10;99.90
50067;DHT22;35952;52.524;13.340;2022-09-17T05:25:12;13.10;99.90
50067;DHT22;35952;52.524;13.340;2022-09-17T05:27:38;13.20;99.90
50067;DHT22;35952;52.524;13.340;2022-09-17T05:30:05;13.20;99.90
50067;DHT22;35952;52.524;13.340;2022-09-17T05:32:30;13.20;99.90
50067;DHT22;35952;52.524;13.340;2022-09-17T05:34:56;13.30;99.90
50067;DHT22;35952;52.524;13.340;2022-09-17T05:37:21;13.30;99.90
50067;DHT22;35952;52.524;13.340;2022-09-17T05:39:47;13.30;99.90
50067;DHT22;35952;52.524;13.340;2022-09-17T05:42:13;13.30;99.90
50067;DHT22;35952;52.524;13.340;2022-09-17T05:44:38;13.40;99.90
50067;DHT22;35952;52.524;13.340;2022-09-17T05:47:04;13.40;99.90
50067;DHT22;35952;52.524;13.340;2022-09-17T05:49:29;13.40;99.90
50067;DHT22;35952;52.524;13.340;2022-09-17T05:51:55;13.50;99.90
50067;DHT22;35952;52.524;13.340;2022-09-17T05:54:20;13.50;99.90
50067;DHT22;35952;52.524;13.340;2022-09-17T05:56:46;13.50;99.90
50067;DHT22;35952;52.524;13.340;2022-09-17T05:59:11;13.50;99.90
50067;DHT22;35952;52.524;13.340;2022-09-17T06:01:37;13.50;99.90
50067;DHT22;35952;52.524;13.340;2022-09-17T06:04:02;13.50;99.90
50067;DHT22;35952;52.524;13.340;2022-09-17T06:06:29;13.50;99.90
50067;DHT22;35952;52.524;13.340;2022-09-17T06:08:58;13.40;99.90
50067;DHT22;35952;52.524;13.340;2022-09-17T06:11:24;13.40;99.90
50067;DHT22;35952;52.524;13.340;2022-09-17T06:13:54;13.40;99.90
50067;DHT22;35952;52.524;13.340;2022-09-17T06:16:20;13.40;99.90
50067;DHT22;35952;52.524;13.340;2022-09-17T06:18:46;13.40;99.90
50067;DHT22;35952;52.524;13.340;2022-09-17T06:21:12;13.50;99.90
50067;DHT22;35952;52.524;13.340;2022-09-17T06:23:37;13.50;99.90
50067;DHT22;35952;52.524;13.340;2022-09-17T06:26:04;13.50;99.90
50067;DHT22;35952;52.524;13.340;2022-09-17T06:28:31;13.50;99.90
50067;DHT22;35952;52.524;13.340;2022-09-17T06:31:00;13.50;99.90
50067;DHT22;35952;52.524;13.340;2022-09-17T06:33:26;13.60;99.90
50067;DHT22;35952;52.524;13.340;2022-09-17T06:35:59;13.50;99.90
50067;DHT22;35952;52.524;13.340;2022-09-17T06:38:26;13.60;99.90
50067;DHT22;35952;52.524;13.340;2022-09-17T06:40:52;13.60;99.90
50067;DHT22;35952;52.524;13.340;2022-09-17T06:43:19;13.70;99.90
50067;DHT22;35952;52.524;13.340;2022-09-17T06:46:02;13.70;99.90
50067;DHT22;35952;52.524;13.340;2022-09-17T06:48:31;13.60;99.90
50067;DHT22;35952;52.524;13.340;2022-09-17T06:51:02;13.70;99.90
50067;DHT22;35952;52.524;13.340;2022-09-17T06:53:28;13.70;99.90
50067;DHT22;35952;52.524;13.340;2022-09-17T06:55:59;13.60;99.90
50067;DHT22;35952;52.524;13.340;2022-09-17T06:58:25;13.60;99.90
50067;DHT22;35952;52.524;13.340;2022-09-17T07:00:51;13.70;99.90
50067;DHT22;35952;52.524;13.340;2022-09-17T07:03:17;13.60;99.90
50067;DHT22;35952;52.524;13.340;2022-09-17T07:05:43;13.60;99.90
50067;DHT22;35952;52.524;13.340;2022-09-17T07:08:09;13.60;99.90
50067;DHT22;35952;52.524;13.340;2022-09-17T07:10:35;13.50;99.90
50067;DHT22;35952;52.524;13.340;2022-09-17T07:13:01;13.60;99.90
50067;DHT22;35952;52.524;13.340;2022-09-17T07:15:27;13.60;99.90
50067;DHT22;35952;52.524;13.340;2022-09-17T07:17:52;13.60;99.90
50067;DHT22;35952;52.524;13.340;2022-09-17T07:20:18;13.70;99.90
50067;DHT22;35952;52.524;13.340;2022-09-17T07:22:44;13.70;99.90
50067;DHT22;35952;52.524;13.340;2022-09-17T07:25:10;13.80;99.90
50067;DHT22;35952;52.524;13.340;2022-09-17T07:27:36;13.80;99.90
50067;DHT22;35952;52.524;13.340;2022-09-17T07:30:01;13.90;99.90
50067;DHT22;35952;52.524;13.340;2022-09-17T07:32:30;13.90;99.90
50067;DHT22;35952;52.524;13.340;2022-09-17T07:34:56;14.00;99.90
50067;DHT22;35952;52.524;13.340;2022-09-17T07:37:21;14.00;99.90
50067;DHT22;35952;52.524;13.340;2022-09-17T07:39:47;14.00;99.90
50067;DHT22;35952;52.524;13.340;2022-09-17T07:42:12;14.00;99.90
50067;DHT22;35952;52.524;13.340;2022-09-17T07:44:38;14.00;99.90
50067;DHT22;35952;52.524;13.340;2022-09-17T07:47:03;14.10;99.90
50067;DHT22;35952;52.524;13.340;2022-09-17T07:49:30;14.20;99.90
50067;DHT22;35952;52.524;13.340;2022-09-17T07:51:55;14.10;99.90
50067;DHT22;35952;52.524;13.340;2022-09-17T07:54:21;14.10;99.90
50067;DHT22;35952;52.524;13.340;2022-09-17T07:56:47;14.20;99.90
50067;DHT22;35952;52.524;13.340;2022-09-17T07:59:13;14.30;99.90
50067;DHT22;35952;52.524;13.340;2022-09-17T08:01:38;14.20;99.90
50067;DHT22;35952;52.524;13.340;2022-09-17T08:04:05;14.30;99.90
50067;DHT22;35952;52.524;13.340;2022-09-17T08:06:30;14.20;99.90
50067;DHT22;35952;52.524;13.340;2022-09-17T08:08:57;14.30;99.90
50067;DHT22;35952;52.524;13.340;2022-09-17T08:11:26;14.40;99.90
50067;DHT22;35952;52.524;13.340;2022-09-17T08:13:53;14.30;99.90
50067;DHT22;35952;52.524;13.340;2022-09-17T08:16:20;14.40;99.90
50067;DHT22;35952;52.524;13.340;2022-09-17T08:18:46;14.40;99.90
50067;DHT22;35952;52.524;13.340;2022-09-17T08:21:16;14.60;99.90
50067;DHT22;35952;52.524;13.340;2022-09-17T08:23:43;14.90;99.90
50067;DHT22;35952;52.524;13.340;2022-09-17T08:26:13;15.30;99.90
50067;DHT22;35952;52.524;13.340;2022-09-17T08:28:39;15.60;99.90
50067;DHT22;35952;52.524;13.340;2022-09-17T08:31:08;15.60;99.90
50067;DHT22;35952;52.524;13.340;2022-09-17T08:33:38;15.50;99.90
50067;DHT22;35952;52.524;13.340;2022-09-17T08:36:06;15.30;99.90
50067;DHT22;35952;52.524;13.340;2022-09-17T08:38:33;15.20;99.90
50067;DHT22;35952;52.524;13.340;2022-09-17T08:46:10;15.30;99.90
50067;DHT22;35952;52.524;13.340;2022-09-17T08:48:49;15.40;99.90
50067;DHT22;35952;52.524;13.340;2022-09-17T08:51:56;15.30;99.90
50067;DHT22;35952;52.524;13.340;2022-09-17T08:54:41;15.10;99.90
50067;DHT22;35952;52.524;13.340;2022-09-17T09:00:11;15.10;99.90
50067;DHT22;35952;52.524;13.340;2022-09-17T09:05:51;15.10;99.90
50067;DHT22;35952;52.524;13.340;2022-09-17T09:08:47;15.00;99.90
50067;DHT22;35952;52.524;13.340;2022-09-17T09:11:17;14.90;99.90
50067;DHT22;35952;52.524;13.340;2022-09-17T09:13:49;14.90;99.90
50067;DHT22;35952;52.524;13.340;2022-09-17T09:16:25;15.10;99.90
50067;DHT22;35952;52.524;13.340;2022-09-17T09:19:00;15.40;99.90
50067;DHT22;35952;52.524;13.340;2022-09-17T09:21:36;15.80;99.90
50067;DHT22;35952;52.524;13.340;2022-09-17T09:26:46;15.90;99.90
50067;DHT22;35952;52.524;13.340;2022-09-17T09:34:36;16.00;99.90
50067;DHT22;35952;52.524;13.340;2022-09-17T09:37:13;16.00;99.90
50067;DHT22;35952;52.524;13.340;2022-09-17T09:39:41;16.00;99.90
50067;DHT22;35952;52.524;13.340;2022-09-17T09:42:26;16.00;99.90
50067;DHT22;35952;52.524;13.340;2022-09-17T09:44:57;15.70;99.90
50067;DHT22;35952;52.524;13.340;2022-09-17T09:53:34;14.90;99.90
50067;DHT22;35952;52.524;13.340;2022-09-17T09:58:45;14.80;99.90
50067;DHT22;35952;52.524;13.340;2022-09-17T10:01:15;14.90;99.90
50067;DHT22;35952;52.524;13.340;2022-09-17T10:03:42;15.10;99.90
50067;DHT22;35952;52.524;13.340;2022-09-17T10:06:11;15.20;99.90
50067;DHT22;35952;52.524;13.340;2022-09-17T10:11:23;15.60;99.90
50067;DHT22;35952;52.524;13.340;2022-09-17T10:13:49;15.70;99.90
50067;DHT22;35952;52.524;13.340;2022-09-17T10:18:49;15.90;99.90
50067;DHT22;35952;52.524;13.340;2022-09-17T10:23:54;16.30;99.90
50067;DHT22;35952;52.524;13.340;2022-09-17T10:26:29;16.60;99.90
50067;DHT22;35952;52.524;13.340;2022-09-17T10:28:58;16.50;99.90
50067;DHT22;35952;52.524;13.340;2022-09-17T10:31:24;16.30;99.90
50067;DHT22;35952;52.524;13.340;2022-09-17T10:34:03;16.00;99.90
50067;DHT22;35952;52.524;13.340;2022-09-17T10:36:41;15.80;99.90
50067;DHT22;35952;52.524;13.340;2022-09-17T10:42:05;15.40;99.90
50067;DHT22;35952;52.524;13.340;2022-09-17T10:44:38;15.50;99.90
50067;DHT22;35952;52.524;13.340;2022-09-17T10:47:21;15.60;99.90
50067;DHT22;35952;52.524;13.340;2022-09-17T10:49:56;15.70;99.90
50067;DHT22;35952;52.524;13.340;2022-09-17T10:52:37;15.90;99.90
50067;DHT22;35952;52.524;13.340;2022-09-17T10:55:29;16.00;99.90
50067;DHT22;35952;52.524;13.340;2022-09-17T11:00:54;15.80;99.90
50067;DHT22;35952;52.524;13.340;2022-09-17T11:14:35;16.70;99.90
50067;DHT22;35952;52.524;13.340;2022-09-17T11:20:03;16.40;99.90
50067;DHT22;35952;52.524;13.340;2022-09-17T11:30:47;16.60;99.90
50067;DHT22;35952;52.524;13.340;2022-09-17T11:35:58;16.50;99.90
50067;DHT22;35952;52.524;13.340;2022-09-17T11:38:41;16.50;99.90
50067;DHT22;35952;52.524;13.340;2022-09-17T11:41:16;16.40;99.90
50067;DHT22;35952;52.524;13.340;2022-09-17T11:43:59;16.40;99.90
50067;DHT22;35952;52.524;13.340;2022-09-17T11:46:33;16.60;99.90
50067;DHT22;35952;52.524;13.340;2022-09-17T11:51:46;16.90;99.90
50067;DHT22;35952;52.524;13.340;2022-09-17T11:54:39;16.90;99.90
50067;DHT22;35952;52.524;13.340;2022-09-17T11:57:14;17.00;99.90
50067;DHT22;35952;52.524;13.340;2022-09-17T12:05:41;17.60;99.90
50067;DHT22;35952;52.524;13.340;2022-09-17T12:11:05;17.80;99.90
50067;DHT22;35952;52.524;13.340;2022-09-17T12:16:26;17.10;99.90
50067;DHT22;35952;52.524;13.340;2022-09-17T12:19:16;16.80;99.90
50067;DHT22;35952;52.524;13.340;2022-09-17T12:21:54;16.50;99.90
50067;DHT22;35952;52.524;13.340;2022-09-17T12:24:26;16.60;99.90
50067;DHT22;35952;52.524;13.340;2022-09-17T12:35:44;16.90;99.90
50067;DHT22;35952;52.524;13.340;2022-09-17T12:57:55;17.40;99.90
50067;DHT22;35952;52.524;13.340;2022-09-17T13:00:24;17.10;99.90
50067;DHT22;35952;52.524;13.340;2022-09-17T13:17:09;17.50;97.90
50067;DHT22;35952;52.524;13.340;2022-09-17T13:19:46;17.70;97.30
50067;DHT22;35952;52.524;13.340;2022-09-17T13:22:21;17.90;96.70
50067;DHT22;35952;52.524;13.340;2022-09-17T13:25:05;18.10;96.20
50067;DHT22;35952;52.524;13.340;2022-09-17T13:27:32;18.10;96.70
50067;DHT22;35952;52.524;13.340;2022-09-17T13:30:00;18.30;97.40
50067;DHT22;35952;52.524;13.340;2022-09-17T13:40:25;20.00;91.50
50067;DHT22;35952;52.524;13.340;2022-09-17T13:42:54;19.80;90.70
50067;DHT22;35952;52.524;13.340;2022-09-17T13:45:22;19.40;90.30
50067;DHT22;35952;52.524;13.340;2022-09-17T13:48:17;19.10;90.60
50067;DHT22;35952;52.524;13.340;2022-09-17T13:50:44;18.90;90.60
50067;DHT22;35952;52.524;13.340;2022-09-17T13:55:50;18.40;90.90
50067;DHT22;35952;52.524;13.340;2022-09-17T13:58:25;18.00;92.20
50067;DHT22;35952;52.524;13.340;2022-09-17T14:01:04;17.70;92.00
50067;DHT22;35952;52.524;13.340;2022-09-17T14:13:55;18.30;93.40
50067;DHT22;35952;52.524;13.340;2022-09-17T14:21:30;19.00;87.90
50067;DHT22;35952;52.524;13.340;2022-09-17T14:23:59;18.70;87.40
50067;DHT22;35952;52.524;13.340;2022-09-17T14:26:39;18.20;86.90
50067;DHT22;35952;52.524;13.340;2022-09-17T14:29:09;17.60;89.90
50067;DHT22;35952;52.524;13.340;2022-09-17T14:31:37;17.20;91.40
50067;DHT22;35952;52.524;13.340;2022-09-17T14:34:04;16.90;94.40
50067;DHT22;35952;52.524;13.340;2022-09-17T14:36:34;16.60;94.00
50067;DHT22;35952;52.524;13.340;2022-09-17T14:39:02;16.30;94.20
50067;DHT22;35952;52.524;13.340;2022-09-17T14:41:33;16.20;95.60
50067;DHT22;35952;52.524;13.340;2022-09-17T14:44:06;16.80;96.40
50067;DHT22;35952;52.524;13.340;2022-09-17T14:46:37;17.50;95.40
50067;DHT22;35952;52.524;13.340;2022-09-17T14:49:25;17.80;93.00
50067;DHT22;35952;52.524;13.340;2022-09-17T14:51:55;18.50;92.70
50067;DHT22;35952;52.524;13.340;2022-09-17T14:54:24;19.40;91.20
50067;DHT22;35952;52.524;13.340;2022-09-17T14:59:46;19.30;89.90
50067;DHT22;35952;52.524;13.340;2022-09-17T15:04:59;17.70;88.50
50067;DHT22;35952;52.524;13.340;2022-09-17T15:07:25;17.40;90.30
50067;DHT22;35952;52.524;13.340;2022-09-17T15:09:51;17.10;90.30
50067;DHT22;35952;52.524;13.340;2022-09-17T15:12:23;16.80;90.80
50067;DHT22;35952;52.524;13.340;2022-09-17T15:14:49;16.50;91.90
50067;DHT22;35952;52.524;13.340;2022-09-17T15:17:17;16.30;93.20
50067;DHT22;35952;52.524;13.340;2022-09-17T15:19:46;16.20;93.80
50067;DHT22;35952;52.524;13.340;2022-09-17T15:22:27;16.00;93.80
50067;DHT22;35952;52.524;13.340;2022-09-17T15:25:05;16.00;93.70
50067;DHT22;35952;52.524;13.340;2022-09-17T15:27:38;15.90;93.90
50067;DHT22;35952;52.524;13.340;2022-09-17T15:30:16;15.70;93.60
50067;DHT22;35952;52.524;13.340;2022-09-17T15:32:52;15.60;94.50
50067;DHT22;35952;52.524;13.340;2022-09-17T15:35:22;15.50;94.30
50067;DHT22;35952;52.524;13.340;2022-09-17T15:37:52;15.50;95.50
50067;DHT22;35952;52.524;13.340;2022-09-17T15:40:29;15.40;95.20
50067;DHT22;35952;52.524;13.340;2022-09-17T15:43:13;15.30;95.80
50067;DHT22;35952;52.524;13.340;2022-09-17T15:45:40;15.30;96.20
50067;DHT22;35952;52.524;13.340;2022-09-17T15:50:58;15.10;96.20
50067;DHT22;35952;52.524;13.340;2022-09-17T15:53:26;15.10;96.70
50067;DHT22;35952;52.524;13.340;2022-09-17T15:56:15;15.10;95.60
50067;DHT22;35952;52.524;13.340;2022-09-17T16:08:49;14.60;96.60
50067;DHT22;35952;52.524;13.340;2022-09-17T16:11:15;14.50;96.60
50067;DHT22;35952;52.524;13.340;2022-09-17T16:13:41;14.40;96.70
50067;DHT22;35952;52.524;13.340;2022-09-17T16:16:09;14.30;97.20
50067;DHT22;35952;52.524;13.340;2022-09-17T16:18:38;14.20;97.10
50067;DHT22;35952;52.524;13.340;2022-09-17T16:21:03;14.10;98.20
50067;DHT22;35952;52.524;13.340;2022-09-17T16:23:29;14.00;98.20
50067;DHT22;35952;52.524;13.340;2022-09-17T16:25:56;14.00;98.60
50067;DHT22;35952;52.524;13.340;2022-09-17T16:28:22;14.00;98.40
50067;DHT22;35952;52.524;13.340;2022-09-17T16:30:48;14.00;98.70
50067;DHT22;35952;52.524;13.340;2022-09-17T16:33:15;14.00;98.90
50067;DHT22;35952;52.524;13.340;2022-09-17T16:35:42;13.90;99.30
50067;DHT22;35952;52.524;13.340;2022-09-17T16:38:08;13.90;99.60
50067;DHT22;35952;52.524;13.340;2022-09-17T16:40:38;13.90;99.90
50067;DHT22;35952;52.524;13.340;2022-09-17T16:43:03;13.90;99.90
50067;DHT22;35952;52.524;13.340;2022-09-17T16:45:29;13.80;99.90
50067;DHT22;35952;52.524;13.340;2022-09-17T16:47:56;13.70;99.90
50067;DHT22;35952;52.524;13.340;2022-09-17T16:50:21;13.70;99.90
50067;DHT22;35952;52.524;13.340;2022-09-17T16:52:47;13.70;99.90
50067;DHT22;35952;52.524;13.340;2022-09-17T16:55:15;13.70;99.90
50067;DHT22;35952;52.524;13.340;2022-09-17T16:57:41;13.60;99.90
50067;DHT22;35952;52.524;13.340;2022-09-17T17:00:09;13.60;99.90
50067;DHT22;35952;52.524;13.340;2022-09-17T17:02:44;13.60;99.90
50067;DHT22;35952;52.524;13.340;2022-09-17T17:05:09;13.60;99.90
50067;DHT22;35952;52.524;13.340;2022-09-17T17:07:35;13.60;99.90
50067;DHT22;35952;52.524;13.340;2022-09-17T17:10:02;13.60;99.90
50067;DHT22;35952;52.524;13.340;2022-09-17T17:12:28;13.50;99.90
50067;DHT22;35952;52.524;13.340;2022-09-17T17:14:54;13.50;99.90
50067;DHT22;35952;52.524;13.340;2022-09-17T17:17:20;13.50;99.90
50067;DHT22;35952;52.524;13.340;2022-09-17T17:19:46;13.50;99.90
50067;DHT22;35952;52.524;13.340;2022-09-17T17:22:13;13.50;99.90
50067;DHT22;35952;52.524;13.340;2022-09-17T17:24:38;13.40;99.90
50067;DHT22;35952;52.524;13.340;2022-09-17T17:27:04;13.50;99.90
50067;DHT22;35952;52.524;13.340;2022-09-17T17:29:29;13.50;99.90
50067;DHT22;35952;52.524;13.340;2022-09-17T17:31:55;13.50;99.90
50067;DHT22;35952;52.524;13.340;2022-09-17T17:34:20;13.50;99.90
50067;DHT22;35952;52.524;13.340;2022-09-17T17:36:49;13.50;99.90
50067;DHT22;35952;52.524;13.340;2022-09-17T17:39:15;13.40;99.90
50067;DHT22;35952;52.524;13.340;2022-09-17T17:41:41;13.40;99.90
50067;DHT22;35952;52.524;13.340;2022-09-17T17:44:08;13.40;99.90
50067;DHT22;35952;52.524;13.340;2022-09-17T17:46:33;13.40;99.90
50067;DHT22;35952;52.524;13.340;2022-09-17T17:48:59;13.30;99.90
50067;DHT22;35952;52.524;13.340;2022-09-17T17:51:24;13.20;99.90
50067;DHT22;35952;52.524;13.340;2022-09-17T17:53:51;13.20;99.90
50067;DHT22;35952;52.524;13.340;2022-09-17T17:56:17;13.20;99.90
50067;DHT22;35952;52.524;13.340;2022-09-17T17:58:42;13.10;99.90
50067;DHT22;35952;52.524;13.340;2022-09-17T18:01:29;13.00;99.90
50067;DHT22;35952;52.524;13.340;2022-09-17T18:03:59;12.90;99.90
50067;DHT22;35952;52.524;13.340;2022-09-17T18:06:25;12.80;99.90
50067;DHT22;35952;52.524;13.340;2022-09-17T18:08:51;12.80;99.90
50067;DHT22;35952;52.524;13.340;2022-09-17T18:11:18;12.80;99.90
50067;DHT22;35952;52.524;13.340;2022-09-17T18:13:43;12.80;99.90
50067;DHT22;35952;52.524;13.340;2022-09-17T18:16:13;12.80;99.90
50067;DHT22;35952;52.524;13.340;2022-09-17T18:18:41;12.80;99.90
50067;DHT22;35952;52.524;13.340;2022-09-17T18:21:09;12.70;99.90
50067;DHT22;35952;52.524;13.340;2022-09-17T18:23:37;12.80;99.90
50067;DHT22;35952;52.524;13.340;2022-09-17T18:26:04;12.70;99.90
50067;DHT22;35952;52.524;13.340;2022-09-17T18:28:32;12.70;99.90
50067;DHT22;35952;52.524;13.340;2022-09-17T18:31:04;12.70;99.90
50067;DHT22;35952;52.524;13.340;2022-09-17T18:33:30;12.60;99.90
50067;DHT22;35952;52.524;13.340;2022-09-17T18:36:03;12.60;99.90
50067;DHT22;35952;52.524;13.340;2022-09-17T18:38:29;12.60;99.90
50067;DHT22;35952;52.524;13.340;2022-09-17T18:40:55;12.60;99.90
50067;DHT22;35952;52.524;13.340;2022-09-17T18:43:20;12.60;99.90
50067;DHT22;35952;52.524;13.340;2022-09-17T18:45:53;12.60;99.90
50067;DHT22;35952;52.524;13.340;2022-09-17T18:48:20;12.50;99.90
50067;DHT22;35952;52.524;13.340;2022-09-17T18:53:21;12.30;99.90